sensor_id;sensor_type;location;lat;lon;timestamp;temperature;humidity
55331;DHT22;58851;42.984;20.336;2024-03-23T00:54:32;77.60;6476.80
55331;DHT22;58851;42.984;20.336;2024-03-23T00:56:58;77.60;6476.80
55331;DHT22;58851;42.984;20.336;2024-03-23T00:59:24;77.60;6476.80
55331;DHT22;58851;42.984;20.336;2024-03-23T01:01:53;77.50;6476.80
55331;DHT22;58851;42.984;20.336;2024-03-23T01:04:19;77.50;6476.80
55331;DHT22;58851;42.984;20.336;2024-03-23T01:06:45;77.50;6476.80
55331;DHT22;58851;42.984;20.336;2024-03-23T01:09:10;77.40;6476.80
55331;DHT22;58851;42.984;20.336;2024-03-23T01:11:37;77.40;6476.80
55331;DHT22;58851;42.984;20.336;2024-03-23T01:14:03;77.40;6476.80
55331;DHT22;58851;42.984;20.336;2024-03-23T01:16:28;77.30;6476.80
55331;DHT22;58851;42.984;20.336;2024-03-23T01:18:54;77.30;6476.80
55331;DHT22;58851;42.984;20.336;2024-03-23T01:21:20;77.30;6476.80
55331;DHT22;58851;42.984;20.336;2024-03-23T01:23:46;77.30;6476.80
55331;DHT22;58851;42.984;20.336;2024-03-23T01:26:11;77.30;6476.80
55331;DHT22;58851;42.984;20.336;2024-03-23T01:28:38;77.30;6476.80
55331;DHT22;58851;42.984;20.336;2024-03-23T01:31:03;77.30;6476.80
55331;DHT22;58851;42.984;20.336;2024-03-23T01:33:29;77.30;6476.80
55331;DHT22;58851;42.984;20.336;2024-03-23T01:35:55;77.30;6476.80
55331;DHT22;58851;42.984;20.336;2024-03-23T01:38:21;77.20;6476.80
55331;DHT22;58851;42.984;20.336;2024-03-23T01:40:46;77.10;6476.80
55331;DHT22;58851;42.984;20.336;2024-03-23T01:43:12;77.20;6476.80
55331;DHT22;58851;42.984;20.336;2024-03-23T01:45:38;77.20;6476.80
55331;DHT22;58851;42.984;20.336;2024-03-23T01:48:04;77.10;6476.80
55331;DHT22;58851;42.984;20.336;2024-03-23T01:50:31;77.00;6476.80
55331;DHT22;58851;42.984;20.336;2024-03-23T01:53:03;77.00;6476.80
55331;DHT22;58851;42.984;20.336;2024-03-23T01:55:34;77.00;6476.80
55331;DHT22;58851;42.984;20.336;2024-03-23T01:58:00;77.00;6476.80
55331;DHT22;58851;42.984;20.336;2024-03-23T02:00:26;77.00;6476.80
55331;DHT22;58851;42.984;20.336;2024-03-23T02:02:53;77.00;6476.80
55331;DHT22;58851;42.984;20.336;2024-03-23T02:05:20;76.90;6476.80
55331;DHT22;58851;42.984;20.336;2024-03-23T02:07:46;76.90;6476.80
55331;DHT22;58851;42.984;20.336;2024-03-23T02:10:12;76.90;6476.80
55331;DHT22;58851;42.984;20.336;2024-03-23T02:12:40;76.80;6476.80
55331;DHT22;58851;42.984;20.336;2024-03-23T02:15:06;76.80;6476.80
55331;DHT22;58851;42.984;20.336;2024-03-23T02:17:34;76.80;6476.80
55331;DHT22;58851;42.984;20.336;2024-03-23T02:20:01;76.80;6476.80
55331;DHT22;58851;42.984;20.336;2024-03-23T02:22:39;76.80;6476.80
55331;DHT22;58851;42.984;20.336;2024-03-23T02:25:06;52.10;6476.80
55331;DHT22;58851;42.984;20.336;2024-03-23T02:27:32;52.10;6476.80
55331;DHT22;58851;42.984;20.336;2024-03-23T02:29:58;52.10;6476.80
55331;DHT22;58851;42.984;20.336;2024-03-23T02:32:24;52.00;6476.80
55331;DHT22;58851;42.984;20.336;2024-03-23T02:34:50;51.80;6476.80
55331;DHT22;58851;42.984;20.336;2024-03-23T02:37:16;51.90;6476.80
55331;DHT22;58851;42.984;20.336;2024-03-23T02:39:42;51.80;6476.80
55331;DHT22;58851;42.984;20.336;2024-03-23T02:42:07;51.80;6476.80
55331;DHT22;58851;42.984;20.336;2024-03-23T02:44:33;51.80;6476.80
55331;DHT22;58851;42.984;20.336;2024-03-23T02:46:59;51.80;6476.80
55331;DHT22;58851;42.984;20.336;2024-03-23T02:49:25;51.90;6476.80
55331;DHT22;58851;42.984;20.336;2024-03-23T02:51:51;51.80;6476.80
55331;DHT22;58851;42.984;20.336;2024-03-23T02:54:17;51.90;6476.80
55331;DHT22;58851;42.984;20.336;2024-03-23T02:56:42;51.80;6476.80
55331;DHT22;58851;42.984;20.336;2024-03-23T02:59:08;51.80;6476.80
55331;DHT22;58851;42.984;20.336;2024-03-23T03:01:35;51.90;6476.80
55331;DHT22;58851;42.984;20.336;2024-03-23T03:04:01;51.80;6476.80
55331;DHT22;58851;42.984;20.336;2024-03-23T03:06:28;51.80;6502.40
55331;DHT22;58851;42.984;20.336;2024-03-23T03:08:54;51.80;6476.80
55331;DHT22;58851;42.984;20.336;2024-03-23T03:11:20;51.80;6476.80
55331;DHT22;58851;42.984;20.336;2024-03-23T03:13:45;51.80;6502.40
55331;DHT22;58851;42.984;20.336;2024-03-23T03:16:11;51.70;128.00
55331;DHT22;58851;42.984;20.336;2024-03-23T03:18:37;51.70;128.00
55331;DHT22;58851;42.984;20.336;2024-03-23T03:21:04;51.60;128.00
55331;DHT22;58851;42.984;20.336;2024-03-23T03:23:31;51.60;281.60
55331;DHT22;58851;42.984;20.336;2024-03-23T03:25:57;51.60;281.60
55331;DHT22;58851;42.984;20.336;2024-03-23T03:28:23;51.60;332.80
55331;DHT22;58851;42.984;20.336;2024-03-23T03:30:49;51.50;409.60
55331;DHT22;58851;42.984;20.336;2024-03-23T03:33:15;51.50;358.40
55331;DHT22;58851;42.984;20.336;2024-03-23T03:35:41;51.50;281.60
55331;DHT22;58851;42.984;20.336;2024-03-23T03:38:07;51.40;512.00
55331;DHT22;58851;42.984;20.336;2024-03-23T03:40:32;51.40;486.40
55331;DHT22;58851;42.984;20.336;2024-03-23T03:42:58;51.50;281.60
55331;DHT22;58851;42.984;20.336;2024-03-23T03:45:24;51.40;281.60
55331;DHT22;58851;42.984;20.336;2024-03-23T03:47:50;51.20;537.60
55331;DHT22;58851;42.984;20.336;2024-03-23T03:50:15;51.20;435.20
55331;DHT22;58851;42.984;20.336;2024-03-23T03:52:41;51.30;384.00
55331;DHT22;58851;42.984;20.336;2024-03-23T03:55:14;51.30;537.60
55331;DHT22;58851;42.984;20.336;2024-03-23T03:57:40;26.50;6451.20
55331;DHT22;58851;42.984;20.336;2024-03-23T04:00:07;26.50;6451.20
55331;DHT22;58851;42.984;20.336;2024-03-23T04:02:40;26.50;6451.20
55331;DHT22;58851;42.984;20.336;2024-03-23T04:05:06;51.20;6476.80
55331;DHT22;58851;42.984;20.336;2024-03-23T04:07:32;51.20;6476.80
55331;DHT22;58851;42.984;20.336;2024-03-23T04:09:58;51.20;6476.80
55331;DHT22;58851;42.984;20.336;2024-03-23T04:12:24;51.20;6476.80
55331;DHT22;58851;42.984;20.336;2024-03-23T04:14:50;51.20;6476.80
55331;DHT22;58851;42.984;20.336;2024-03-23T04:17:16;51.20;6476.80
55331;DHT22;58851;42.984;20.336;2024-03-23T04:19:42;51.20;6476.80
55331;DHT22;58851;42.984;20.336;2024-03-23T04:22:08;51.20;6476.80
55331;DHT22;58851;42.984;20.336;2024-03-23T04:24:33;26.50;6451.20
55331;DHT22;58851;42.984;20.336;2024-03-23T04:26:59;51.20;6476.80
55331;DHT22;58851;42.984;20.336;2024-03-23T04:29:25;26.40;6451.20
55331;DHT22;58851;42.984;20.336;2024-03-23T04:31:52;26.40;6451.20
55331;DHT22;58851;42.984;20.336;2024-03-23T04:34:18;26.50;6451.20
55331;DHT22;58851;42.984;20.336;2024-03-23T04:36:44;26.50;6451.20
55331;DHT22;58851;42.984;20.336;2024-03-23T04:39:10;26.40;6451.20
55331;DHT22;58851;42.984;20.336;2024-03-23T04:41:36;26.40;6451.20
55331;DHT22;58851;42.984;20.336;2024-03-23T04:44:02;26.40;6451.20
55331;DHT22;58851;42.984;20.336;2024-03-23T04:46:27;26.40;6451.20
55331;DHT22;58851;42.984;20.336;2024-03-23T04:48:53;26.40;6451.20
55331;DHT22;58851;42.984;20.336;2024-03-23T04:51:23;26.40;6451.20
55331;DHT22;58851;42.984;20.336;2024-03-23T04:53:50;26.50;6451.20
55331;DHT22;58851;42.984;20.336;2024-03-23T04:56:20;26.50;6451.20
55331;DHT22;58851;42.984;20.336;2024-03-23T04:58:46;26.50;6451.20
55331;DHT22;58851;42.984;20.336;2024-03-23T05:01:13;26.50;6451.20
55331;DHT22;58851;42.984;20.336;2024-03-23T05:03:39;26.50;6451.20
55331;DHT22;58851;42.984;20.336;2024-03-23T05:06:05;26.50;6451.20
55331;DHT22;58851;42.984;20.336;2024-03-23T05:08:31;26.50;6451.20
55331;DHT22;58851;42.984;20.336;2024-03-23T05:10:57;26.50;6451.20
55331;DHT22;58851;42.984;20.336;2024-03-23T05:13:23;51.20;6476.80
55331;DHT22;58851;42.984;20.336;2024-03-23T05:15:54;51.20;6476.80
55331;DHT22;58851;42.984;20.336;2024-03-23T05:18:21;51.20;6476.80
55331;DHT22;58851;42.984;20.336;2024-03-23T05:20:47;51.20;6476.80
55331;DHT22;58851;42.984;20.336;2024-03-23T05:23:13;51.30;6476.80
55331;DHT22;58851;42.984;20.336;2024-03-23T05:25:39;51.40;6476.80
55331;DHT22;58851;42.984;20.336;2024-03-23T05:28:05;51.40;6476.80
55331;DHT22;58851;42.984;20.336;2024-03-23T05:30:31;51.40;6476.80
55331;DHT22;58851;42.984;20.336;2024-03-23T05:32:57;51.50;6476.80
55331;DHT22;58851;42.984;20.336;2024-03-23T05:35:22;51.50;6476.80
55331;DHT22;58851;42.984;20.336;2024-03-23T05:37:48;51.50;6476.80
55331;DHT22;58851;42.984;20.336;2024-03-23T05:40:14;51.50;6476.80
55331;DHT22;58851;42.984;20.336;2024-03-23T05:42:41;51.60;6476.80
55331;DHT22;58851;42.984;20.336;2024-03-23T05:45:07;51.70;6476.80
55331;DHT22;58851;42.984;20.336;2024-03-23T05:47:33;51.80;6476.80
55331;DHT22;58851;42.984;20.336;2024-03-23T05:49:59;52.00;6476.80
55331;DHT22;58851;42.984;20.336;2024-03-23T05:52:25;52.10;6476.80
55331;DHT22;58851;42.984;20.336;2024-03-23T05:54:52;52.10;6476.80
55331;DHT22;58851;42.984;20.336;2024-03-23T05:57:18;76.80;512.00
55331;DHT22;58851;42.984;20.336;2024-03-23T05:59:44;76.80;6476.80
55331;DHT22;58851;42.984;20.336;2024-03-23T06:02:10;76.90;6476.80
55331;DHT22;58851;42.984;20.336;2024-03-23T06:04:36;77.00;435.20
55331;DHT22;58851;42.984;20.336;2024-03-23T06:07:03;77.10;384.00
55331;DHT22;58851;42.984;20.336;2024-03-23T06:09:28;77.20;537.60
55331;DHT22;58851;42.984;20.336;2024-03-23T06:11:56;77.20;230.40
55331;DHT22;58851;42.984;20.336;2024-03-23T06:14:22;77.30;307.20
55331;DHT22;58851;42.984;20.336;2024-03-23T06:16:48;77.50;204.80
55331;DHT22;58851;42.984;20.336;2024-03-23T06:19:14;77.50;281.60
55331;DHT22;58851;42.984;20.336;2024-03-23T06:21:43;77.50;307.20
55331;DHT22;58851;42.984;20.336;2024-03-23T06:24:10;77.50;153.60
55331;DHT22;58851;42.984;20.336;2024-03-23T06:26:36;77.60;128.00
55331;DHT22;58851;42.984;20.336;2024-03-23T06:29:02;102.40;128.00
55331;DHT22;58851;42.984;20.336;2024-03-23T06:31:28;102.40;128.00
55331;DHT22;58851;42.984;20.336;2024-03-23T06:33:55;102.50;128.00
55331;DHT22;58851;42.984;20.336;2024-03-23T06:36:21;102.60;179.20
55331;DHT22;58851;42.984;20.336;2024-03-23T06:38:47;102.70;128.00
55331;DHT22;58851;42.984;20.336;2024-03-23T06:41:13;102.80;6476.80
55331;DHT22;58851;42.984;20.336;2024-03-23T06:43:38;103.00;6476.80
55331;DHT22;58851;42.984;20.336;2024-03-23T06:46:05;103.20;6476.80
55331;DHT22;58851;42.984;20.336;2024-03-23T06:48:31;103.30;6476.80
55331;DHT22;58851;42.984;20.336;2024-03-23T06:50:57;128.10;6502.40
55331;DHT22;58851;42.984;20.336;2024-03-23T06:53:23;128.20;6502.40
55331;DHT22;58851;42.984;20.336;2024-03-23T06:55:55;128.40;6502.40
55331;DHT22;58851;42.984;20.336;2024-03-23T06:58:22;128.50;6502.40
55331;DHT22;58851;42.984;20.336;2024-03-23T07:00:48;128.70;6502.40
55331;DHT22;58851;42.984;20.336;2024-03-23T07:03:16;128.60;6502.40
55331;DHT22;58851;42.984;20.336;2024-03-23T07:05:42;128.60;6502.40
55331;DHT22;58851;42.984;20.336;2024-03-23T07:08:08;128.80;6502.40
55331;DHT22;58851;42.984;20.336;2024-03-23T07:10:34;153.60;6502.40
55331;DHT22;58851;42.984;20.336;2024-03-23T07:12:59;153.70;6502.40
55331;DHT22;58851;42.984;20.336;2024-03-23T07:15:25;153.80;6502.40
55331;DHT22;58851;42.984;20.336;2024-03-23T07:17:51;153.90;6502.40
55331;DHT22;58851;42.984;20.336;2024-03-23T07:20:17;154.00;6502.40
55331;DHT22;58851;42.984;20.336;2024-03-23T07:22:42;154.00;6502.40
55331;DHT22;58851;42.984;20.336;2024-03-23T07:25:10;154.20;6502.40
55331;DHT22;58851;42.984;20.336;2024-03-23T07:27:36;154.10;6502.40
55331;DHT22;58851;42.984;20.336;2024-03-23T07:30:02;154.30;6502.40
55331;DHT22;58851;42.984;20.336;2024-03-23T07:32:28;154.30;6502.40
55331;DHT22;58851;42.984;20.336;2024-03-23T07:34:54;154.50;6502.40
55331;DHT22;58851;42.984;20.336;2024-03-23T07:37:20;179.20;6502.40
55331;DHT22;58851;42.984;20.336;2024-03-23T07:39:45;179.30;6502.40
55331;DHT22;58851;42.984;20.336;2024-03-23T07:42:11;179.50;6502.40
55331;DHT22;58851;42.984;20.336;2024-03-23T07:44:37;179.50;6502.40
55331;DHT22;58851;42.984;20.336;2024-03-23T07:47:03;179.70;6502.40
55331;DHT22;58851;42.984;20.336;2024-03-23T07:49:29;179.90;6502.40
55331;DHT22;58851;42.984;20.336;2024-03-23T07:51:55;180.10;6502.40
55331;DHT22;58851;42.984;20.336;2024-03-23T07:54:21;204.80;6502.40
55331;DHT22;58851;42.984;20.336;2024-03-23T07:56:46;204.80;6502.40
55331;DHT22;58851;42.984;20.336;2024-03-23T07:59:12;205.00;6502.40
55331;DHT22;58851;42.984;20.336;2024-03-23T08:01:38;205.30;6502.40
55331;DHT22;58851;42.984;20.336;2024-03-23T08:04:04;205.40;6502.40
55331;DHT22;58851;42.984;20.336;2024-03-23T08:06:29;205.50;6502.40
55331;DHT22;58851;42.984;20.336;2024-03-23T08:08:56;205.70;6502.40
55331;DHT22;58851;42.984;20.336;2024-03-23T08:11:26;230.50;6502.40
55331;DHT22;58851;42.984;20.336;2024-03-23T08:13:52;230.60;6502.40
55331;DHT22;58851;42.984;20.336;2024-03-23T08:16:18;230.60;6502.40
55331;DHT22;58851;42.984;20.336;2024-03-23T08:18:44;230.80;6502.40
55331;DHT22;58851;42.984;20.336;2024-03-23T08:21:10;230.90;6502.40
55331;DHT22;58851;42.984;20.336;2024-03-23T08:23:36;231.20;6502.40
55331;DHT22;58851;42.984;20.336;2024-03-23T08:26:08;256.00;6502.40
55331;DHT22;58851;42.984;20.336;2024-03-23T08:28:34;256.20;6502.40
55331;DHT22;58851;42.984;20.336;2024-03-23T08:31:05;256.40;6502.40
55331;DHT22;58851;42.984;20.336;2024-03-23T08:33:31;256.50;6502.40
55331;DHT22;58851;42.984;20.336;2024-03-23T08:35:58;256.70;6502.40
55331;DHT22;58851;42.984;20.336;2024-03-23T08:38:25;256.90;6502.40
55331;DHT22;58851;42.984;20.336;2024-03-23T08:41:09;281.60;6528.00
55331;DHT22;58851;42.984;20.336;2024-03-23T08:43:37;281.80;6528.00
55331;DHT22;58851;42.984;20.336;2024-03-23T08:46:04;282.00;6528.00
55331;DHT22;58851;42.984;20.336;2024-03-23T08:48:31;282.20;6528.00
55331;DHT22;58851;42.984;20.336;2024-03-23T08:51:07;282.40;6528.00
55331;DHT22;58851;42.984;20.336;2024-03-23T08:53:37;307.20;128.00
55331;DHT22;58851;42.984;20.336;2024-03-23T08:56:04;307.30;128.00
55331;DHT22;58851;42.984;20.336;2024-03-23T08:58:31;307.40;128.00
55331;DHT22;58851;42.984;20.336;2024-03-23T09:01:03;307.70;128.00
55331;DHT22;58851;42.984;20.336;2024-03-23T09:03:29;307.90;128.00
55331;DHT22;58851;42.984;20.336;2024-03-23T09:05:55;307.90;128.00
55331;DHT22;58851;42.984;20.336;2024-03-23T09:08:21;308.00;128.00
55331;DHT22;58851;42.984;20.336;2024-03-23T09:10:47;332.80;128.00
55331;DHT22;58851;42.984;20.336;2024-03-23T09:13:14;332.90;128.00
55331;DHT22;58851;42.984;20.336;2024-03-23T09:15:47;333.00;128.00
55331;DHT22;58851;42.984;20.336;2024-03-23T09:18:14;333.20;128.00
55331;DHT22;58851;42.984;20.336;2024-03-23T09:20:39;333.40;128.00
55331;DHT22;58851;42.984;20.336;2024-03-23T09:23:05;333.50;128.00
55331;DHT22;58851;42.984;20.336;2024-03-23T09:25:31;333.60;128.00
55331;DHT22;58851;42.984;20.336;2024-03-23T09:27:58;333.60;128.00
55331;DHT22;58851;42.984;20.336;2024-03-23T09:30:24;358.50;281.60
55331;DHT22;58851;42.984;20.336;2024-03-23T09:32:49;358.60;281.60
55331;DHT22;58851;42.984;20.336;2024-03-23T09:35:15;358.90;307.20
55331;DHT22;58851;42.984;20.336;2024-03-23T09:37:41;359.10;128.00
55331;DHT22;58851;42.984;20.336;2024-03-23T09:40:11;359.30;640.00
55331;DHT22;58851;42.984;20.336;2024-03-23T09:42:37;384.10;128.00
55331;DHT22;58851;42.984;20.336;2024-03-23T09:45:11;384.20;128.00
55331;DHT22;58851;42.984;20.336;2024-03-23T09:47:42;384.30;128.00
55331;DHT22;58851;42.984;20.336;2024-03-23T09:50:09;384.30;128.00
55331;DHT22;58851;42.984;20.336;2024-03-23T09:52:35;384.30;128.00
55331;DHT22;58851;42.984;20.336;2024-03-23T09:55:01;384.60;128.00
55331;DHT22;58851;42.984;20.336;2024-03-23T09:57:27;384.70;128.00
55331;DHT22;58851;42.984;20.336;2024-03-23T09:59:52;384.70;128.00
55331;DHT22;58851;42.984;20.336;2024-03-23T10:02:21;384.50;128.00
55331;DHT22;58851;42.984;20.336;2024-03-23T10:04:47;384.30;128.00
55331;DHT22;58851;42.984;20.336;2024-03-23T10:07:18;384.40;128.00
55331;DHT22;58851;42.984;20.336;2024-03-23T10:09:45;384.50;128.00
55331;DHT22;58851;42.984;20.336;2024-03-23T10:12:13;384.70;128.00
55331;DHT22;58851;42.984;20.336;2024-03-23T10:14:40;409.60;128.00
55331;DHT22;58851;42.984;20.336;2024-03-23T10:17:13;409.70;128.00
55331;DHT22;58851;42.984;20.336;2024-03-23T10:19:43;409.80;128.00
55331;DHT22;58851;42.984;20.336;2024-03-23T10:22:12;410.10;128.00
55331;DHT22;58851;42.984;20.336;2024-03-23T10:24:38;410.20;128.00
55331;DHT22;58851;42.984;20.336;2024-03-23T10:27:04;410.30;128.00
55331;DHT22;58851;42.984;20.336;2024-03-23T10:29:30;410.20;128.00
55331;DHT22;58851;42.984;20.336;2024-03-23T10:32:10;410.40;128.00
55331;DHT22;58851;42.984;20.336;2024-03-23T10:34:37;410.30;128.00
55331;DHT22;58851;42.984;20.336;2024-03-23T10:37:04;410.30;128.00
55331;DHT22;58851;42.984;20.336;2024-03-23T10:39:39;410.40;128.00
55331;DHT22;58851;42.984;20.336;2024-03-23T10:42:07;410.20;128.00
55331;DHT22;58851;42.984;20.336;2024-03-23T10:44:33;410.40;128.00
55331;DHT22;58851;42.984;20.336;2024-03-23T10:47:00;410.20;128.00
55331;DHT22;58851;42.984;20.336;2024-03-23T10:49:33;410.20;128.00
55331;DHT22;58851;42.984;20.336;2024-03-23T10:52:01;410.50;128.00
55331;DHT22;58851;42.984;20.336;2024-03-23T10:54:27;435.30;128.00
55331;DHT22;58851;42.984;20.336;2024-03-23T11:00:04;435.30;128.00
55331;DHT22;58851;42.984;20.336;2024-03-23T11:02:31;435.30;128.00
55331;DHT22;58851;42.984;20.336;2024-03-23T11:04:56;410.50;128.00
55331;DHT22;58851;42.984;20.336;2024-03-23T11:07:30;435.50;128.00
55331;DHT22;58851;42.984;20.336;2024-03-23T11:09:57;435.70;128.00
55331;DHT22;58851;42.984;20.336;2024-03-23T11:15:06;435.60;128.00
55331;DHT22;58851;42.984;20.336;2024-03-23T11:17:36;435.50;128.00
55331;DHT22;58851;42.984;20.336;2024-03-23T11:20:03;435.70;128.00
55331;DHT22;58851;42.984;20.336;2024-03-23T11:22:47;435.90;128.00
55331;DHT22;58851;42.984;20.336;2024-03-23T11:25:22;435.90;128.00
55331;DHT22;58851;42.984;20.336;2024-03-23T11:27:53;436.00;128.00
55331;DHT22;58851;42.984;20.336;2024-03-23T11:30:37;436.10;128.00
55331;DHT22;58851;42.984;20.336;2024-03-23T11:33:04;460.80;128.00
55331;DHT22;58851;42.984;20.336;2024-03-23T11:35:32;460.90;128.00
55331;DHT22;58851;42.984;20.336;2024-03-23T11:38:17;461.00;128.00
55331;DHT22;58851;42.984;20.336;2024-03-23T11:40:50;461.10;128.00
55331;DHT22;58851;42.984;20.336;2024-03-23T11:43:18;461.20;128.00
55331;DHT22;58851;42.984;20.336;2024-03-23T11:45:48;461.10;128.00
55331;DHT22;58851;42.984;20.336;2024-03-23T11:48:19;461.30;128.00
55331;DHT22;58851;42.984;20.336;2024-03-23T11:50:46;461.60;128.00
55331;DHT22;58851;42.984;20.336;2024-03-23T11:53:17;461.70;128.00
55331;DHT22;58851;42.984;20.336;2024-03-23T11:55:59;486.40;128.00
55331;DHT22;58851;42.984;20.336;2024-03-23T11:58:27;486.60;128.00
55331;DHT22;58851;42.984;20.336;2024-03-23T12:00:57;486.90;128.00
55331;DHT22;58851;42.984;20.336;2024-03-23T12:03:23;487.10;128.00
55331;DHT22;58851;42.984;20.336;2024-03-23T12:05:55;487.10;128.00
55331;DHT22;58851;42.984;20.336;2024-03-23T12:08:35;487.30;128.00
55331;DHT22;58851;42.984;20.336;2024-03-23T12:13:37;486.90;128.00
55331;DHT22;58851;42.984;20.336;2024-03-23T12:16:10;486.90;128.00
55331;DHT22;58851;42.984;20.336;2024-03-23T12:18:38;512.10;128.00
55331;DHT22;58851;42.984;20.336;2024-03-23T12:21:04;512.30;128.00
55331;DHT22;58851;42.984;20.336;2024-03-23T12:23:30;512.60;128.00
55331;DHT22;58851;42.984;20.336;2024-03-23T12:25:56;537.60;128.00
55331;DHT22;58851;42.984;20.336;2024-03-23T12:28:22;538.00;128.00
55331;DHT22;58851;42.984;20.336;2024-03-23T12:30:48;538.40;128.00
55331;DHT22;58851;42.984;20.336;2024-03-23T12:33:13;563.30;128.00
55331;DHT22;58851;42.984;20.336;2024-03-23T12:35:39;563.40;128.00
55331;DHT22;58851;42.984;20.336;2024-03-23T12:38:05;563.60;128.00
55331;DHT22;58851;42.984;20.336;2024-03-23T12:40:31;563.30;128.00
55331;DHT22;58851;42.984;20.336;2024-03-23T12:42:57;538.10;128.00
55331;DHT22;58851;42.984;20.336;2024-03-23T12:45:23;538.10;128.00
55331;DHT22;58851;42.984;20.336;2024-03-23T12:47:49;538.20;128.00
55331;DHT22;58851;42.984;20.336;2024-03-23T12:50:14;538.50;128.00
55331;DHT22;58851;42.984;20.336;2024-03-23T12:52:40;537.90;128.00
55331;DHT22;58851;42.984;20.336;2024-03-23T12:55:07;537.70;128.00
55331;DHT22;58851;42.984;20.336;2024-03-23T12:57:33;537.80;128.00
55331;DHT22;58851;42.984;20.336;2024-03-23T12:59:59;538.20;128.00
55331;DHT22;58851;42.984;20.336;2024-03-23T13:02:25;537.60;128.00
55331;DHT22;58851;42.984;20.336;2024-03-23T13:04:52;512.70;128.00
55331;DHT22;58851;42.984;20.336;2024-03-23T13:07:18;512.50;128.00
55331;DHT22;58851;42.984;20.336;2024-03-23T13:09:45;512.40;128.00
55331;DHT22;58851;42.984;20.336;2024-03-23T13:12:11;512.40;128.00
55331;DHT22;58851;42.984;20.336;2024-03-23T13:14:40;512.50;128.00
55331;DHT22;58851;42.984;20.336;2024-03-23T13:17:06;512.70;128.00
55331;DHT22;58851;42.984;20.336;2024-03-23T13:19:33;512.50;128.00
55331;DHT22;58851;42.984;20.336;2024-03-23T13:22:00;512.30;128.00
55331;DHT22;58851;42.984;20.336;2024-03-23T13:24:27;537.60;128.00
55331;DHT22;58851;42.984;20.336;2024-03-23T13:26:55;537.60;128.00
55331;DHT22;58851;42.984;20.336;2024-03-23T13:29:21;512.80;128.00
55331;DHT22;58851;42.984;20.336;2024-03-23T13:31:48;512.90;128.00
55331;DHT22;58851;42.984;20.336;2024-03-23T13:34:14;512.90;128.00
55331;DHT22;58851;42.984;20.336;2024-03-23T13:36:47;512.50;128.00
55331;DHT22;58851;42.984;20.336;2024-03-23T13:39:14;538.20;128.00
55331;DHT22;58851;42.984;20.336;2024-03-23T13:41:43;538.50;128.00
55331;DHT22;58851;42.984;20.336;2024-03-23T13:44:11;563.30;128.00
55331;DHT22;58851;42.984;20.336;2024-03-23T13:46:39;563.40;128.00
55331;DHT22;58851;42.984;20.336;2024-03-23T13:49:06;588.90;128.00
55331;DHT22;58851;42.984;20.336;2024-03-23T13:51:32;564.10;128.00
55331;DHT22;58851;42.984;20.336;2024-03-23T13:53:58;563.30;128.00
55331;DHT22;58851;42.984;20.336;2024-03-23T13:56:30;538.50;128.00
55331;DHT22;58851;42.984;20.336;2024-03-23T13:58:56;538.00;128.00
55331;DHT22;58851;42.984;20.336;2024-03-23T14:01:23;537.90;128.00
55331;DHT22;58851;42.984;20.336;2024-03-23T14:03:49;537.60;128.00
55331;DHT22;58851;42.984;20.336;2024-03-23T14:06:15;512.80;128.00
55331;DHT22;58851;42.984;20.336;2024-03-23T14:08:41;512.80;128.00
55331;DHT22;58851;42.984;20.336;2024-03-23T14:11:09;512.80;128.00
55331;DHT22;58851;42.984;20.336;2024-03-23T14:13:36;512.50;128.00
55331;DHT22;58851;42.984;20.336;2024-03-23T14:16:02;512.30;128.00
55331;DHT22;58851;42.984;20.336;2024-03-23T14:18:28;487.30;128.00
55331;DHT22;58851;42.984;20.336;2024-03-23T14:21:01;487.30;128.00
55331;DHT22;58851;42.984;20.336;2024-03-23T14:23:27;487.30;128.00
55331;DHT22;58851;42.984;20.336;2024-03-23T14:25:58;512.20;128.00
55331;DHT22;58851;42.984;20.336;2024-03-23T14:28:25;487.20;128.00
55331;DHT22;58851;42.984;20.336;2024-03-23T14:30:51;512.10;128.00
55331;DHT22;58851;42.984;20.336;2024-03-23T14:33:18;537.60;128.00
55331;DHT22;58851;42.984;20.336;2024-03-23T14:35:53;538.10;128.00
55331;DHT22;58851;42.984;20.336;2024-03-23T14:38:21;563.50;128.00
55331;DHT22;58851;42.984;20.336;2024-03-23T14:40:47;563.50;128.00
55331;DHT22;58851;42.984;20.336;2024-03-23T14:43:13;563.60;128.00
55331;DHT22;58851;42.984;20.336;2024-03-23T14:46:14;589.10;128.00
55331;DHT22;58851;42.984;20.336;2024-03-23T14:48:40;589.00;128.00
55331;DHT22;58851;42.984;20.336;2024-03-23T14:51:07;589.40;128.00
55331;DHT22;58851;42.984;20.336;2024-03-23T14:53:40;589.40;128.00
55331;DHT22;58851;42.984;20.336;2024-03-23T14:56:07;589.20;128.00
55331;DHT22;58851;42.984;20.336;2024-03-23T14:58:33;589.20;128.00
55331;DHT22;58851;42.984;20.336;2024-03-23T15:01:05;589.50;128.00
55331;DHT22;58851;42.984;20.336;2024-03-23T15:03:35;589.30;128.00
55331;DHT22;58851;42.984;20.336;2024-03-23T15:06:02;589.10;128.00
55331;DHT22;58851;42.984;20.336;2024-03-23T15:08:28;589.20;128.00
55331;DHT22;58851;42.984;20.336;2024-03-23T15:10:54;589.50;128.00
55331;DHT22;58851;42.984;20.336;2024-03-23T15:13:20;589.40;128.00
55331;DHT22;58851;42.984;20.336;2024-03-23T15:15:48;589.20;128.00
55331;DHT22;58851;42.984;20.336;2024-03-23T15:18:15;589.00;128.00
55331;DHT22;58851;42.984;20.336;2024-03-23T15:20:51;563.80;128.00
55331;DHT22;58851;42.984;20.336;2024-03-23T15:23:17;563.50;128.00
55331;DHT22;58851;42.984;20.336;2024-03-23T15:25:42;563.30;128.00
55331;DHT22;58851;42.984;20.336;2024-03-23T15:28:08;538.50;128.00
55331;DHT22;58851;42.984;20.336;2024-03-23T15:30:35;538.10;128.00
55331;DHT22;58851;42.984;20.336;2024-03-23T15:33:02;537.90;128.00
55331;DHT22;58851;42.984;20.336;2024-03-23T15:35:28;512.50;128.00
55331;DHT22;58851;42.984;20.336;2024-03-23T15:37:53;512.50;128.00
55331;DHT22;58851;42.984;20.336;2024-03-23T15:40:20;512.00;128.00
55331;DHT22;58851;42.984;20.336;2024-03-23T15:42:46;487.00;128.00
55331;DHT22;58851;42.984;20.336;2024-03-23T15:45:12;486.70;128.00
55331;DHT22;58851;42.984;20.336;2024-03-23T15:47:38;486.40;128.00
55331;DHT22;58851;42.984;20.336;2024-03-23T15:50:04;461.60;128.00